sensor_id;sensor_type;location;lat;lon;timestamp;temperature;humidity
5130;DHT22;2583;50.946;6.954;2022-07-22T00:02:11;18.40;99.90
5130;DHT22;2583;50.946;6.954;2022-07-22T00:04:37;18.40;99.90
5130;DHT22;2583;50.946;6.954;2022-07-22T00:07:05;18.30;99.90
5130;DHT22;2583;50.946;6.954;2022-07-22T00:09:31;18.20;99.90
5130;DHT22;2583;50.946;6.954;2022-07-22T00:12:00;18.20;99.90
5130;DHT22;2583;50.946;6.954;2022-07-22T00:14:26;18.10;99.90
5130;DHT22;2583;50.946;6.954;2022-07-22T00:16:53;18.10;99.90
5130;DHT22;2583;50.946;6.954;2022-07-22T00:19:20;18.00;99.90
5130;DHT22;2583;50.946;6.954;2022-07-22T00:21:47;18.00;99.90
5130;DHT22;2583;50.946;6.954;2022-07-22T00:24:14;18.10;99.90
5130;DHT22;2583;50.946;6.954;2022-07-22T00:26:41;18.10;99.90
5130;DHT22;2583;50.946;6.954;2022-07-22T00:29:07;18.20;99.90
5130;DHT22;2583;50.946;6.954;2022-07-22T00:31:35;18.20;99.90
5130;DHT22;2583;50.946;6.954;2022-07-22T00:34:02;18.20;99.90
5130;DHT22;2583;50.946;6.954;2022-07-22T00:36:30;18.20;99.90
5130;DHT22;2583;50.946;6.954;2022-07-22T00:38:57;18.20;99.90
5130;DHT22;2583;50.946;6.954;2022-07-22T00:41:25;18.20;99.90
5130;DHT22;2583;50.946;6.954;2022-07-22T00:46:26;18.20;99.90
5130;DHT22;2583;50.946;6.954;2022-07-22T00:48:54;18.20;99.90
5130;DHT22;2583;50.946;6.954;2022-07-22T00:51:23;18.20;99.90
5130;DHT22;2583;50.946;6.954;2022-07-22T00:53:52;18.10;99.90
5130;DHT22;2583;50.946;6.954;2022-07-22T00:56:19;18.10;99.90
5130;DHT22;2583;50.946;6.954;2022-07-22T00:58:48;18.20;99.90
5130;DHT22;2583;50.946;6.954;2022-07-22T01:01:16;18.20;99.90
5130;DHT22;2583;50.946;6.954;2022-07-22T01:03:43;18.20;99.90
5130;DHT22;2583;50.946;6.954;2022-07-22T01:06:15;18.10;99.90
5130;DHT22;2583;50.946;6.954;2022-07-22T01:08:42;18.00;99.90
5130;DHT22;2583;50.946;6.954;2022-07-22T01:11:11;18.10;99.90
5130;DHT22;2583;50.946;6.954;2022-07-22T01:13:39;18.00;99.90
5130;DHT22;2583;50.946;6.954;2022-07-22T01:16:07;18.10;99.90
5130;DHT22;2583;50.946;6.954;2022-07-22T01:18:36;18.10;99.90
5130;DHT22;2583;50.946;6.954;2022-07-22T01:21:05;18.20;99.90
5130;DHT22;2583;50.946;6.954;2022-07-22T01:23:32;18.20;99.90
5130;DHT22;2583;50.946;6.954;2022-07-22T01:26:00;18.20;99.90
5130;DHT22;2583;50.946;6.954;2022-07-22T01:28:27;18.10;99.90
5130;DHT22;2583;50.946;6.954;2022-07-22T01:30:54;18.20;99.90
5130;DHT22;2583;50.946;6.954;2022-07-22T01:33:21;18.10;99.90
5130;DHT22;2583;50.946;6.954;2022-07-22T01:35:50;18.10;99.90
5130;DHT22;2583;50.946;6.954;2022-07-22T01:38:18;18.20;99.90
5130;DHT22;2583;50.946;6.954;2022-07-22T01:40:46;18.10;99.90
5130;DHT22;2583;50.946;6.954;2022-07-22T01:43:13;18.10;99.90
5130;DHT22;2583;50.946;6.954;2022-07-22T01:45:45;18.10;99.90
5130;DHT22;2583;50.946;6.954;2022-07-22T01:48:12;17.90;99.90
5130;DHT22;2583;50.946;6.954;2022-07-22T01:50:40;17.90;99.90
5130;DHT22;2583;50.946;6.954;2022-07-22T01:53:08;17.80;99.90
5130;DHT22;2583;50.946;6.954;2022-07-22T01:55:35;17.80;99.90
5130;DHT22;2583;50.946;6.954;2022-07-22T01:58:01;17.80;99.90
5130;DHT22;2583;50.946;6.954;2022-07-22T02:00:31;17.80;99.90
5130;DHT22;2583;50.946;6.954;2022-07-22T02:02:58;17.90;99.90
5130;DHT22;2583;50.946;6.954;2022-07-22T02:05:25;17.90;99.90
5130;DHT22;2583;50.946;6.954;2022-07-22T02:07:52;17.90;99.90
5130;DHT22;2583;50.946;6.954;2022-07-22T02:10:19;17.80;99.90
5130;DHT22;2583;50.946;6.954;2022-07-22T02:12:46;17.90;99.90
5130;DHT22;2583;50.946;6.954;2022-07-22T02:15:12;17.90;99.90
5130;DHT22;2583;50.946;6.954;2022-07-22T02:17:39;17.80;99.90
5130;DHT22;2583;50.946;6.954;2022-07-22T02:20:06;17.80;99.90
5130;DHT22;2583;50.946;6.954;2022-07-22T02:22:33;17.80;99.90
5130;DHT22;2583;50.946;6.954;2022-07-22T02:25:00;17.80;99.90
5130;DHT22;2583;50.946;6.954;2022-07-22T02:27:27;17.70;99.90
5130;DHT22;2583;50.946;6.954;2022-07-22T02:29:54;17.90;99.90
5130;DHT22;2583;50.946;6.954;2022-07-22T02:32:21;17.90;99.90
5130;DHT22;2583;50.946;6.954;2022-07-22T02:34:48;17.90;99.90
5130;DHT22;2583;50.946;6.954;2022-07-22T02:37:15;17.90;99.90
5130;DHT22;2583;50.946;6.954;2022-07-22T02:39:43;18.00;99.90
5130;DHT22;2583;50.946;6.954;2022-07-22T02:42:10;17.90;99.90
5130;DHT22;2583;50.946;6.954;2022-07-22T02:44:37;18.00;99.90
5130;DHT22;2583;50.946;6.954;2022-07-22T02:47:04;18.00;99.90
5130;DHT22;2583;50.946;6.954;2022-07-22T02:49:31;18.00;99.90
5130;DHT22;2583;50.946;6.954;2022-07-22T02:51:58;18.00;99.90
5130;DHT22;2583;50.946;6.954;2022-07-22T02:54:24;18.00;99.90
5130;DHT22;2583;50.946;6.954;2022-07-22T02:56:51;17.90;99.90
5130;DHT22;2583;50.946;6.954;2022-07-22T02:59:18;17.80;99.90
5130;DHT22;2583;50.946;6.954;2022-07-22T03:01:45;17.70;99.90
5130;DHT22;2583;50.946;6.954;2022-07-22T03:04:12;17.70;99.90
5130;DHT22;2583;50.946;6.954;2022-07-22T03:06:39;17.70;99.90
5130;DHT22;2583;50.946;6.954;2022-07-22T03:09:06;17.70;99.90
5130;DHT22;2583;50.946;6.954;2022-07-22T03:11:33;17.60;99.90
5130;DHT22;2583;50.946;6.954;2022-07-22T03:13:59;17.60;99.90
5130;DHT22;2583;50.946;6.954;2022-07-22T03:16:26;17.60;99.90
5130;DHT22;2583;50.946;6.954;2022-07-22T03:18:53;17.60;99.90
5130;DHT22;2583;50.946;6.954;2022-07-22T03:21:20;17.70;99.90
5130;DHT22;2583;50.946;6.954;2022-07-22T03:23:47;17.70;99.90
5130;DHT22;2583;50.946;6.954;2022-07-22T03:26:23;17.80;99.90
5130;DHT22;2583;50.946;6.954;2022-07-22T03:28:50;17.90;99.90
5130;DHT22;2583;50.946;6.954;2022-07-22T03:31:19;17.90;99.90
5130;DHT22;2583;50.946;6.954;2022-07-22T03:33:46;17.80;99.90
5130;DHT22;2583;50.946;6.954;2022-07-22T03:36:13;17.80;99.90
5130;DHT22;2583;50.946;6.954;2022-07-22T03:38:39;17.70;99.90
5130;DHT22;2583;50.946;6.954;2022-07-22T03:41:06;17.70;99.90
5130;DHT22;2583;50.946;6.954;2022-07-22T03:43:33;17.70;99.90
5130;DHT22;2583;50.946;6.954;2022-07-22T03:46:00;17.60;99.90
5130;DHT22;2583;50.946;6.954;2022-07-22T03:48:27;17.60;99.90
5130;DHT22;2583;50.946;6.954;2022-07-22T03:50:54;17.50;99.90
5130;DHT22;2583;50.946;6.954;2022-07-22T03:53:21;17.50;99.90
5130;DHT22;2583;50.946;6.954;2022-07-22T03:55:47;17.50;99.90
5130;DHT22;2583;50.946;6.954;2022-07-22T03:58:16;17.50;99.90
5130;DHT22;2583;50.946;6.954;2022-07-22T04:00:44;17.50;99.90
5130;DHT22;2583;50.946;6.954;2022-07-22T04:03:11;17.50;99.90
5130;DHT22;2583;50.946;6.954;2022-07-22T04:05:38;17.50;99.90
5130;DHT22;2583;50.946;6.954;2022-07-22T04:08:05;17.50;99.90
5130;DHT22;2583;50.946;6.954;2022-07-22T04:10:32;17.50;99.90
5130;DHT22;2583;50.946;6.954;2022-07-22T04:12:59;17.50;99.90
5130;DHT22;2583;50.946;6.954;2022-07-22T04:15:26;17.50;99.90
5130;DHT22;2583;50.946;6.954;2022-07-22T04:17:52;17.50;99.90
5130;DHT22;2583;50.946;6.954;2022-07-22T04:20:19;17.50;99.90
5130;DHT22;2583;50.946;6.954;2022-07-22T04:22:46;17.40;99.90
5130;DHT22;2583;50.946;6.954;2022-07-22T04:25:13;17.40;99.90
5130;DHT22;2583;50.946;6.954;2022-07-22T04:27:41;17.50;99.90
5130;DHT22;2583;50.946;6.954;2022-07-22T04:30:08;17.50;99.90
5130;DHT22;2583;50.946;6.954;2022-07-22T04:32:35;17.50;99.90
5130;DHT22;2583;50.946;6.954;2022-07-22T04:35:03;17.50;99.90
5130;DHT22;2583;50.946;6.954;2022-07-22T04:37:31;17.50;99.90
5130;DHT22;2583;50.946;6.954;2022-07-22T04:39:58;17.50;99.90
5130;DHT22;2583;50.946;6.954;2022-07-22T04:42:25;17.50;99.90
5130;DHT22;2583;50.946;6.954;2022-07-22T04:44:52;17.50;99.90
5130;DHT22;2583;50.946;6.954;2022-07-22T04:47:19;17.50;99.90
5130;DHT22;2583;50.946;6.954;2022-07-22T04:49:46;17.50;99.90
5130;DHT22;2583;50.946;6.954;2022-07-22T04:52:13;17.50;99.90
5130;DHT22;2583;50.946;6.954;2022-07-22T04:54:39;17.50;99.90
5130;DHT22;2583;50.946;6.954;2022-07-22T04:57:07;17.50;99.90
5130;DHT22;2583;50.946;6.954;2022-07-22T04:59:34;17.50;99.90
5130;DHT22;2583;50.946;6.954;2022-07-22T05:02:01;17.50;99.90
5130;DHT22;2583;50.946;6.954;2022-07-22T05:04:28;17.50;99.90
5130;DHT22;2583;50.946;6.954;2022-07-22T05:06:55;17.60;99.90
5130;DHT22;2583;50.946;6.954;2022-07-22T05:09:22;17.60;99.90
5130;DHT22;2583;50.946;6.954;2022-07-22T05:11:48;17.50;99.90
5130;DHT22;2583;50.946;6.954;2022-07-22T05:14:15;17.50;99.90
5130;DHT22;2583;50.946;6.954;2022-07-22T05:16:42;17.50;99.90
5130;DHT22;2583;50.946;6.954;2022-07-22T05:19:09;17.40;99.90
5130;DHT22;2583;50.946;6.954;2022-07-22T05:21:36;17.40;99.90
5130;DHT22;2583;50.946;6.954;2022-07-22T05:24:03;17.50;99.90
5130;DHT22;2583;50.946;6.954;2022-07-22T05:26:30;17.50;99.90
5130;DHT22;2583;50.946;6.954;2022-07-22T05:28:59;17.50;99.90
5130;DHT22;2583;50.946;6.954;2022-07-22T05:31:26;17.60;99.90
5130;DHT22;2583;50.946;6.954;2022-07-22T05:33:53;17.70;99.90
5130;DHT22;2583;50.946;6.954;2022-07-22T05:36:20;17.70;99.90
5130;DHT22;2583;50.946;6.954;2022-07-22T05:38:48;17.80;99.90
5130;DHT22;2583;50.946;6.954;2022-07-22T05:41:15;17.80;99.90
5130;DHT22;2583;50.946;6.954;2022-07-22T05:43:41;17.90;99.90
5130;DHT22;2583;50.946;6.954;2022-07-22T05:46:08;17.90;99.90
5130;DHT22;2583;50.946;6.954;2022-07-22T05:48:35;17.90;99.90
5130;DHT22;2583;50.946;6.954;2022-07-22T05:51:02;18.00;99.90
5130;DHT22;2583;50.946;6.954;2022-07-22T05:53:29;18.10;99.90
5130;DHT22;2583;50.946;6.954;2022-07-22T05:55:56;18.10;99.90
5130;DHT22;2583;50.946;6.954;2022-07-22T05:58:29;18.20;99.90
5130;DHT22;2583;50.946;6.954;2022-07-22T06:00:56;18.20;99.90
5130;DHT22;2583;50.946;6.954;2022-07-22T06:03:25;18.10;99.90
5130;DHT22;2583;50.946;6.954;2022-07-22T06:05:52;18.20;99.90
5130;DHT22;2583;50.946;6.954;2022-07-22T06:08:18;18.10;99.90
5130;DHT22;2583;50.946;6.954;2022-07-22T06:10:45;18.10;99.90
5130;DHT22;2583;50.946;6.954;2022-07-22T06:13:12;18.20;99.90
5130;DHT22;2583;50.946;6.954;2022-07-22T06:15:39;18.10;99.90
5130;DHT22;2583;50.946;6.954;2022-07-22T06:18:06;18.00;99.90
5130;DHT22;2583;50.946;6.954;2022-07-22T06:20:33;18.10;99.90
5130;DHT22;2583;50.946;6.954;2022-07-22T06:23:00;18.10;99.90
5130;DHT22;2583;50.946;6.954;2022-07-22T06:25:27;18.20;99.90
5130;DHT22;2583;50.946;6.954;2022-07-22T06:28:11;18.20;99.90
5130;DHT22;2583;50.946;6.954;2022-07-22T06:30:38;18.20;99.90
5130;DHT22;2583;50.946;6.954;2022-07-22T06:33:07;18.20;99.90
5130;DHT22;2583;50.946;6.954;2022-07-22T06:35:34;18.10;99.90
5130;DHT22;2583;50.946;6.954;2022-07-22T06:38:01;18.10;99.90
5130;DHT22;2583;50.946;6.954;2022-07-22T06:40:35;18.00;99.90
5130;DHT22;2583;50.946;6.954;2022-07-22T06:43:03;18.00;99.90
5130;DHT22;2583;50.946;6.954;2022-07-22T06:45:30;17.90;99.90
5130;DHT22;2583;50.946;6.954;2022-07-22T06:47:57;18.00;99.90
5130;DHT22;2583;50.946;6.954;2022-07-22T06:50:24;17.90;99.90
5130;DHT22;2583;50.946;6.954;2022-07-22T06:52:53;18.00;99.90
5130;DHT22;2583;50.946;6.954;2022-07-22T06:55:20;18.00;99.90
5130;DHT22;2583;50.946;6.954;2022-07-22T06:57:47;18.00;99.90
5130;DHT22;2583;50.946;6.954;2022-07-22T07:00:15;18.00;99.90
5130;DHT22;2583;50.946;6.954;2022-07-22T07:02:42;18.00;99.90
5130;DHT22;2583;50.946;6.954;2022-07-22T07:05:09;18.00;99.90
5130;DHT22;2583;50.946;6.954;2022-07-22T07:07:46;18.10;99.90
5130;DHT22;2583;50.946;6.954;2022-07-22T07:10:13;18.00;99.90
5130;DHT22;2583;50.946;6.954;2022-07-22T07:12:42;18.00;99.90
5130;DHT22;2583;50.946;6.954;2022-07-22T07:15:10;18.00;99.90
5130;DHT22;2583;50.946;6.954;2022-07-22T07:17:54;18.00;99.90
5130;DHT22;2583;50.946;6.954;2022-07-22T07:20:22;18.10;99.90
5130;DHT22;2583;50.946;6.954;2022-07-22T07:22:49;18.10;99.90
5130;DHT22;2583;50.946;6.954;2022-07-22T07:25:16;18.20;99.90
5130;DHT22;2583;50.946;6.954;2022-07-22T07:27:49;18.20;99.90
5130;DHT22;2583;50.946;6.954;2022-07-22T07:30:16;18.30;99.90
5130;DHT22;2583;50.946;6.954;2022-07-22T07:32:44;18.30;99.90
5130;DHT22;2583;50.946;6.954;2022-07-22T07:35:11;18.30;99.90
5130;DHT22;2583;50.946;6.954;2022-07-22T07:37:38;18.30;99.90
5130;DHT22;2583;50.946;6.954;2022-07-22T07:40:05;18.30;99.90
5130;DHT22;2583;50.946;6.954;2022-07-22T07:42:33;18.30;99.90
5130;DHT22;2583;50.946;6.954;2022-07-22T07:45:00;18.40;99.90
5130;DHT22;2583;50.946;6.954;2022-07-22T07:47:26;18.30;99.90
5130;DHT22;2583;50.946;6.954;2022-07-22T07:49:53;18.30;99.90
5130;DHT22;2583;50.946;6.954;2022-07-22T07:52:20;18.40;99.90
5130;DHT22;2583;50.946;6.954;2022-07-22T07:54:47;18.50;99.90
5130;DHT22;2583;50.946;6.954;2022-07-22T07:57:35;18.50;99.90
5130;DHT22;2583;50.946;6.954;2022-07-22T08:00:05;18.60;99.90
5130;DHT22;2583;50.946;6.954;2022-07-22T08:02:38;18.70;99.90
5130;DHT22;2583;50.946;6.954;2022-07-22T08:05:07;18.70;99.90
5130;DHT22;2583;50.946;6.954;2022-07-22T08:07:36;18.60;99.90
5130;DHT22;2583;50.946;6.954;2022-07-22T08:10:06;18.70;99.90
5130;DHT22;2583;50.946;6.954;2022-07-22T08:12:53;18.70;99.90
5130;DHT22;2583;50.946;6.954;2022-07-22T08:15:22;18.70;99.90
5130;DHT22;2583;50.946;6.954;2022-07-22T08:17:52;18.80;99.90
5130;DHT22;2583;50.946;6.954;2022-07-22T08:20:20;18.80;99.90
5130;DHT22;2583;50.946;6.954;2022-07-22T08:22:49;18.90;99.90
5130;DHT22;2583;50.946;6.954;2022-07-22T08:25:16;19.00;99.90
5130;DHT22;2583;50.946;6.954;2022-07-22T08:27:43;19.00;99.90
5130;DHT22;2583;50.946;6.954;2022-07-22T08:30:11;19.20;99.90
5130;DHT22;2583;50.946;6.954;2022-07-22T08:32:38;19.00;99.90
5130;DHT22;2583;50.946;6.954;2022-07-22T08:35:07;19.00;99.90
5130;DHT22;2583;50.946;6.954;2022-07-22T08:37:35;19.10;99.90
5130;DHT22;2583;50.946;6.954;2022-07-22T08:40:03;19.20;99.90
5130;DHT22;2583;50.946;6.954;2022-07-22T08:42:31;19.20;99.90
5130;DHT22;2583;50.946;6.954;2022-07-22T08:45:03;19.20;99.90
5130;DHT22;2583;50.946;6.954;2022-07-22T08:47:32;19.40;99.90
5130;DHT22;2583;50.946;6.954;2022-07-22T08:50:09;19.40;99.90
5130;DHT22;2583;50.946;6.954;2022-07-22T08:52:36;19.50;99.90
5130;DHT22;2583;50.946;6.954;2022-07-22T08:55:04;19.50;99.90
5130;DHT22;2583;50.946;6.954;2022-07-22T08:57:31;19.60;99.90
5130;DHT22;2583;50.946;6.954;2022-07-22T09:00:00;19.70;99.90
5130;DHT22;2583;50.946;6.954;2022-07-22T09:02:27;19.60;99.90
5130;DHT22;2583;50.946;6.954;2022-07-22T09:05:04;19.70;99.90
5130;DHT22;2583;50.946;6.954;2022-07-22T09:07:58;19.80;99.90
5130;DHT22;2583;50.946;6.954;2022-07-22T09:10:32;19.90;99.90
5130;DHT22;2583;50.946;6.954;2022-07-22T09:13:01;19.90;99.90
5130;DHT22;2583;50.946;6.954;2022-07-22T09:15:34;19.90;99.90
5130;DHT22;2583;50.946;6.954;2022-07-22T09:18:04;19.90;99.90
5130;DHT22;2583;50.946;6.954;2022-07-22T09:20:33;20.00;99.90
5130;DHT22;2583;50.946;6.954;2022-07-22T09:23:01;20.20;99.90
5130;DHT22;2583;50.946;6.954;2022-07-22T09:25:36;20.20;99.90
5130;DHT22;2583;50.946;6.954;2022-07-22T09:30:54;20.30;99.90
5130;DHT22;2583;50.946;6.954;2022-07-22T09:33:24;20.50;99.90
5130;DHT22;2583;50.946;6.954;2022-07-22T09:35:52;20.60;99.90
5130;DHT22;2583;50.946;6.954;2022-07-22T09:38:27;20.70;99.90
5130;DHT22;2583;50.946;6.954;2022-07-22T09:40:59;20.80;99.90
5130;DHT22;2583;50.946;6.954;2022-07-22T09:43:26;20.90;99.90
5130;DHT22;2583;50.946;6.954;2022-07-22T09:45:59;20.90;99.90
5130;DHT22;2583;50.946;6.954;2022-07-22T09:48:26;20.80;99.90
5130;DHT22;2583;50.946;6.954;2022-07-22T09:50:54;21.00;99.90
5130;DHT22;2583;50.946;6.954;2022-07-22T09:53:28;21.00;99.90
5130;DHT22;2583;50.946;6.954;2022-07-22T09:55:59;21.10;99.90
5130;DHT22;2583;50.946;6.954;2022-07-22T09:58:27;21.30;99.90
5130;DHT22;2583;50.946;6.954;2022-07-22T10:00:57;21.40;99.90
5130;DHT22;2583;50.946;6.954;2022-07-22T10:03:31;21.50;99.90
5130;DHT22;2583;50.946;6.954;2022-07-22T10:05:59;21.90;99.90
5130;DHT22;2583;50.946;6.954;2022-07-22T10:08:30;22.00;99.90
5130;DHT22;2583;50.946;6.954;2022-07-22T10:11:03;22.10;99.90
5130;DHT22;2583;50.946;6.954;2022-07-22T10:13:31;22.10;99.90
5130;DHT22;2583;50.946;6.954;2022-07-22T10:15:58;22.30;99.90
5130;DHT22;2583;50.946;6.954;2022-07-22T10:18:26;22.40;99.90
5130;DHT22;2583;50.946;6.954;2022-07-22T10:21:06;22.60;99.30
5130;DHT22;2583;50.946;6.954;2022-07-22T10:23:34;22.60;99.90
5130;DHT22;2583;50.946;6.954;2022-07-22T10:26:03;22.50;99.90
5130;DHT22;2583;50.946;6.954;2022-07-22T10:28:37;22.20;99.90
5130;DHT22;2583;50.946;6.954;2022-07-22T10:31:21;22.10;99.90
5130;DHT22;2583;50.946;6.954;2022-07-22T10:33:52;22.10;99.90
5130;DHT22;2583;50.946;6.954;2022-07-22T10:36:37;22.00;99.90
5130;DHT22;2583;50.946;6.954;2022-07-22T10:39:07;22.00;99.90
5130;DHT22;2583;50.946;6.954;2022-07-22T10:41:41;22.20;99.90
5130;DHT22;2583;50.946;6.954;2022-07-22T10:44:11;22.20;99.90
5130;DHT22;2583;50.946;6.954;2022-07-22T10:46:53;22.30;99.90
5130;DHT22;2583;50.946;6.954;2022-07-22T10:49:23;22.30;99.90
5130;DHT22;2583;50.946;6.954;2022-07-22T10:55:20;22.30;99.90
5130;DHT22;2583;50.946;6.954;2022-07-22T10:57:48;22.40;99.90
5130;DHT22;2583;50.946;6.954;2022-07-22T11:00:15;22.60;99.90
5130;DHT22;2583;50.946;6.954;2022-07-22T11:02:42;22.60;99.90
5130;DHT22;2583;50.946;6.954;2022-07-22T11:05:09;22.90;99.90
5130;DHT22;2583;50.946;6.954;2022-07-22T11:07:43;22.90;96.90
5130;DHT22;2583;50.946;6.954;2022-07-22T11:10:16;23.00;97.20
5130;DHT22;2583;50.946;6.954;2022-07-22T11:12:47;23.30;98.00
5130;DHT22;2583;50.946;6.954;2022-07-22T11:15:14;23.30;97.40
5130;DHT22;2583;50.946;6.954;2022-07-22T11:17:41;23.20;96.00
5130;DHT22;2583;50.946;6.954;2022-07-22T11:20:11;23.10;94.40
5130;DHT22;2583;50.946;6.954;2022-07-22T11:22:38;22.80;95.10
5130;DHT22;2583;50.946;6.954;2022-07-22T11:25:07;22.80;95.90
5130;DHT22;2583;50.946;6.954;2022-07-22T11:27:34;22.70;97.50
5130;DHT22;2583;50.946;6.954;2022-07-22T11:30:03;23.10;95.70
5130;DHT22;2583;50.946;6.954;2022-07-22T11:32:32;23.40;94.10
5130;DHT22;2583;50.946;6.954;2022-07-22T11:34:59;23.30;90.90
5130;DHT22;2583;50.946;6.954;2022-07-22T11:37:28;23.20;91.30
5130;DHT22;2583;50.946;6.954;2022-07-22T11:40:00;23.00;94.60
5130;DHT22;2583;50.946;6.954;2022-07-22T11:42:28;23.30;94.90
5130;DHT22;2583;50.946;6.954;2022-07-22T11:44:54;23.30;90.90
5130;DHT22;2583;50.946;6.954;2022-07-22T11:47:21;23.40;91.00
5130;DHT22;2583;50.946;6.954;2022-07-22T11:49:48;23.40;90.30
5130;DHT22;2583;50.946;6.954;2022-07-22T11:52:15;23.30;87.40
5130;DHT22;2583;50.946;6.954;2022-07-22T11:54:43;23.40;91.10
5130;DHT22;2583;50.946;6.954;2022-07-22T11:57:12;23.60;89.40
5130;DHT22;2583;50.946;6.954;2022-07-22T11:59:39;23.80;83.30
5130;DHT22;2583;50.946;6.954;2022-07-22T12:02:07;24.10;79.30
5130;DHT22;2583;50.946;6.954;2022-07-22T12:04:36;24.10;78.80
5130;DHT22;2583;50.946;6.954;2022-07-22T12:07:04;24.10;73.60
5130;DHT22;2583;50.946;6.954;2022-07-22T12:09:35;24.10;79.70
5130;DHT22;2583;50.946;6.954;2022-07-22T12:12:03;24.20;80.50
5130;DHT22;2583;50.946;6.954;2022-07-22T12:14:33;24.40;70.00
5130;DHT22;2583;50.946;6.954;2022-07-22T12:17:08;24.50;68.70
5130;DHT22;2583;50.946;6.954;2022-07-22T12:19:38;24.60;66.90
5130;DHT22;2583;50.946;6.954;2022-07-22T12:22:07;24.60;66.40
5130;DHT22;2583;50.946;6.954;2022-07-22T12:24:37;24.70;63.90
5130;DHT22;2583;50.946;6.954;2022-07-22T12:27:17;24.80;63.20
5130;DHT22;2583;50.946;6.954;2022-07-22T12:29:47;25.00;59.50
5130;DHT22;2583;50.946;6.954;2022-07-22T12:34:59;25.20;57.80
5130;DHT22;2583;50.946;6.954;2022-07-22T12:37:32;25.00;58.40
5130;DHT22;2583;50.946;6.954;2022-07-22T12:40:16;25.00;58.00
5130;DHT22;2583;50.946;6.954;2022-07-22T12:42:46;25.30;59.80
5130;DHT22;2583;50.946;6.954;2022-07-22T12:45:17;25.30;54.20
5130;DHT22;2583;50.946;6.954;2022-07-22T12:47:51;25.30;53.10
5130;DHT22;2583;50.946;6.954;2022-07-22T12:50:32;25.30;52.80
5130;DHT22;2583;50.946;6.954;2022-07-22T12:53:03;25.40;55.00
5130;DHT22;2583;50.946;6.954;2022-07-22T12:55:47;25.70;55.00
5130;DHT22;2583;50.946;6.954;2022-07-22T12:58:15;26.00;51.60
5130;DHT22;2583;50.946;6.954;2022-07-22T13:00:47;26.10;48.20
5130;DHT22;2583;50.946;6.954;2022-07-22T13:03:14;25.80;48.50
5130;DHT22;2583;50.946;6.954;2022-07-22T13:05:42;25.80;48.30
5130;DHT22;2583;50.946;6.954;2022-07-22T13:08:09;25.60;48.80
5130;DHT22;2583;50.946;6.954;2022-07-22T13:10:36;25.30;48.60
5130;DHT22;2583;50.946;6.954;2022-07-22T13:13:05;25.60;48.40
5130;DHT22;2583;50.946;6.954;2022-07-22T13:15:33;26.20;48.90
5130;DHT22;2583;50.946;6.954;2022-07-22T13:18:00;26.50;44.60
5130;DHT22;2583;50.946;6.954;2022-07-22T13:20:27;26.70;42.70
5130;DHT22;2583;50.946;6.954;2022-07-22T13:22:53;26.80;42.10
5130;DHT22;2583;50.946;6.954;2022-07-22T13:25:20;26.80;42.30
5130;DHT22;2583;50.946;6.954;2022-07-22T13:27:48;26.70;41.00
5130;DHT22;2583;50.946;6.954;2022-07-22T13:30:15;26.90;41.90
5130;DHT22;2583;50.946;6.954;2022-07-22T13:32:43;27.20;40.30
5130;DHT22;2583;50.946;6.954;2022-07-22T13:35:15;27.10;38.50
5130;DHT22;2583;50.946;6.954;2022-07-22T13:37:45;26.70;39.70
5130;DHT22;2583;50.946;6.954;2022-07-22T13:40:13;26.60;40.60
5130;DHT22;2583;50.946;6.954;2022-07-22T13:42:40;26.60;39.40
5130;DHT22;2583;50.946;6.954;2022-07-22T13:45:07;26.60;40.10
5130;DHT22;2583;50.946;6.954;2022-07-22T13:47:37;26.90;38.80
5130;DHT22;2583;50.946;6.954;2022-07-22T13:50:05;27.10;37.00
5130;DHT22;2583;50.946;6.954;2022-07-22T13:52:32;27.60;36.40
5130;DHT22;2583;50.946;6.954;2022-07-22T13:54:59;27.90;34.10
5130;DHT22;2583;50.946;6.954;2022-07-22T13:57:26;28.10;33.90
5130;DHT22;2583;50.946;6.954;2022-07-22T13:59:53;27.70;32.90
5130;DHT22;2583;50.946;6.954;2022-07-22T14:02:20;27.60;33.30
5130;DHT22;2583;50.946;6.954;2022-07-22T14:04:47;27.30;34.10
5130;DHT22;2583;50.946;6.954;2022-07-22T14:07:14;27.10;33.70
5130;DHT22;2583;50.946;6.954;2022-07-22T14:09:40;26.80;34.30
5130;DHT22;2583;50.946;6.954;2022-07-22T14:12:08;26.70;34.40
5130;DHT22;2583;50.946;6.954;2022-07-22T14:14:35;27.00;34.80
5130;DHT22;2583;50.946;6.954;2022-07-22T14:17:01;27.40;34.70
5130;DHT22;2583;50.946;6.954;2022-07-22T14:19:29;27.60;32.80
5130;DHT22;2583;50.946;6.954;2022-07-22T14:21:56;27.40;33.30
5130;DHT22;2583;50.946;6.954;2022-07-22T14:24:23;27.00;33.60
5130;DHT22;2583;50.946;6.954;2022-07-22T14:26:51;26.80;35.90
5130;DHT22;2583;50.946;6.954;2022-07-22T14:29:18;26.50;35.50
5130;DHT22;2583;50.946;6.954;2022-07-22T14:31:48;26.20;36.70
5130;DHT22;2583;50.946;6.954;2022-07-22T14:34:14;26.20;37.40
5130;DHT22;2583;50.946;6.954;2022-07-22T14:36:41;26.10;38.20
5130;DHT22;2583;50.946;6.954;2022-07-22T14:39:08;26.00;38.50
5130;DHT22;2583;50.946;6.954;2022-07-22T14:41:35;25.90;39.20
5130;DHT22;2583;50.946;6.954;2022-07-22T14:44:02;25.90;40.10
5130;DHT22;2583;50.946;6.954;2022-07-22T14:46:29;25.80;39.20
5130;DHT22;2583;50.946;6.954;2022-07-22T14:48:56;25.80;40.90
5130;DHT22;2583;50.946;6.954;2022-07-22T14:51:23;25.80;39.10
5130;DHT22;2583;50.946;6.954;2022-07-22T14:53:50;25.60;40.30
5130;DHT22;2583;50.946;6.954;2022-07-22T14:56:17;25.40;40.30
5130;DHT22;2583;50.946;6.954;2022-07-22T14:58:45;25.40;41.10
5130;DHT22;2583;50.946;6.954;2022-07-22T15:01:12;25.50;40.90
5130;DHT22;2583;50.946;6.954;2022-07-22T15:03:40;25.40;41.10
5130;DHT22;2583;50.946;6.954;2022-07-22T15:06:08;25.50;41.30
5130;DHT22;2583;50.946;6.954;2022-07-22T15:08:35;25.40;41.40
5130;DHT22;2583;50.946;6.954;2022-07-22T15:11:02;25.40;41.30
5130;DHT22;2583;50.946;6.954;2022-07-22T15:13:29;25.20;41.70
5130;DHT22;2583;50.946;6.954;2022-07-22T15:15:56;25.20;42.70
5130;DHT22;2583;50.946;6.954;2022-07-22T15:18:23;25.40;42.40
5130;DHT22;2583;50.946;6.954;2022-07-22T15:20:51;25.40;42.40
5130;DHT22;2583;50.946;6.954;2022-07-22T15:23:24;25.40;41.20
5130;DHT22;2583;50.946;6.954;2022-07-22T15:25:57;25.50;40.60
5130;DHT22;2583;50.946;6.954;2022-07-22T15:28:25;25.50;40.70
5130;DHT22;2583;50.946;6.954;2022-07-22T15:31:01;25.50;39.80
5130;DHT22;2583;50.946;6.954;2022-07-22T15:33:29;25.30;39.50
5130;DHT22;2583;50.946;6.954;2022-07-22T15:36:04;25.40;39.90
5130;DHT22;2583;50.946;6.954;2022-07-22T15:38:35;25.40;39.80
5130;DHT22;2583;50.946;6.954;2022-07-22T15:41:03;25.10;39.70
5130;DHT22;2583;50.946;6.954;2022-07-22T15:43:31;25.10;41.30
5130;DHT22;2583;50.946;6.954;2022-07-22T15:45:58;25.20;41.90
5130;DHT22;2583;50.946;6.954;2022-07-22T15:48:25;25.00;41.00
5130;DHT22;2583;50.946;6.954;2022-07-22T15:50:52;25.00;41.90
5130;DHT22;2583;50.946;6.954;2022-07-22T15:53:27;24.90;41.50
5130;DHT22;2583;50.946;6.954;2022-07-22T15:55:54;24.80;42.40
5130;DHT22;2583;50.946;6.954;2022-07-22T15:58:21;24.80;42.60
5130;DHT22;2583;50.946;6.954;2022-07-22T16:01:07;24.70;42.90
5130;DHT22;2583;50.946;6.954;2022-07-22T16:03:33;24.80;43.20
5130;DHT22;2583;50.946;6.954;2022-07-22T16:06:00;25.00;43.80
5130;DHT22;2583;50.946;6.954;2022-07-22T16:08:28;25.10;42.10
5130;DHT22;2583;50.946;6.954;2022-07-22T16:10:55;24.90;41.80
5130;DHT22;2583;50.946;6.954;2022-07-22T16:13:21;25.00;42.20
5130;DHT22;2583;50.946;6.954;2022-07-22T16:15:49;24.90;41.10
5130;DHT22;2583;50.946;6.954;2022-07-22T16:18:16;24.80;41.60
5130;DHT22;2583;50.946;6.954;2022-07-22T16:20:43;24.70;41.90
5130;DHT22;2583;50.946;6.954;2022-07-22T16:23:10;24.80;42.60